sensor_id;sensor_type;location;lat;lon;timestamp;P1;durP1;ratioP1;P2;durP2;ratioP2
36441;SDS011;64346;50.820;16.274;2023-04-03T00:01:18;10.10;;;3.70;;
36441;SDS011;64346;50.820;16.274;2023-04-03T00:03:50;7.72;;;3.03;;
36441;SDS011;64346;50.820;16.274;2023-04-03T00:06:19;8.98;;;3.25;;
36441;SDS011;64346;50.820;16.274;2023-04-03T00:08:47;10.40;;;2.97;;
36441;SDS011;64346;50.820;16.274;2023-04-03T00:11:14;10.70;;;3.35;;
36441;SDS011;64346;50.820;16.274;2023-04-03T00:13:44;9.75;;;2.90;;
36441;SDS011;64346;50.820;16.274;2023-04-03T00:16:13;11.00;;;3.20;;
36441;SDS011;64346;50.820;16.274;2023-04-03T00:18:41;10.07;;;3.47;;
36441;SDS011;64346;50.820;16.274;2023-04-03T00:21:12;12.32;;;3.50;;
36441;SDS011;64346;50.820;16.274;2023-04-03T00:23:40;10.13;;;3.22;;
36441;SDS011;64346;50.820;16.274;2023-04-03T00:26:07;7.25;;;2.92;;
36441;SDS011;64346;50.820;16.274;2023-04-03T00:28:36;10.77;;;3.08;;
36441;SDS011;64346;50.820;16.274;2023-04-03T00:31:08;8.50;;;3.10;;
36441;SDS011;64346;50.820;16.274;2023-04-03T00:33:36;8.40;;;3.00;;
36441;SDS011;64346;50.820;16.274;2023-04-03T00:36:07;10.23;;;3.55;;
36441;SDS011;64346;50.820;16.274;2023-04-03T00:38:36;12.98;;;3.35;;
36441;SDS011;64346;50.820;16.274;2023-04-03T00:41:06;9.43;;;2.70;;
36441;SDS011;64346;50.820;16.274;2023-04-03T00:43:33;9.82;;;3.00;;
36441;SDS011;64346;50.820;16.274;2023-04-03T00:46:00;10.38;;;3.22;;
36441;SDS011;64346;50.820;16.274;2023-04-03T00:48:33;8.05;;;2.92;;
36441;SDS011;64346;50.820;16.274;2023-04-03T00:51:04;10.20;;;2.97;;
36441;SDS011;64346;50.820;16.274;2023-04-03T00:53:35;9.65;;;3.10;;
36441;SDS011;64346;50.820;16.274;2023-04-03T00:56:07;11.23;;;3.35;;
36441;SDS011;64346;50.820;16.274;2023-04-03T00:58:39;9.32;;;3.33;;
36441;SDS011;64346;50.820;16.274;2023-04-03T01:01:16;7.72;;;3.17;;
36441;SDS011;64346;50.820;16.274;2023-04-03T01:03:47;10.77;;;3.45;;
36441;SDS011;64346;50.820;16.274;2023-04-03T01:06:15;10.05;;;3.50;;
36441;SDS011;64346;50.820;16.274;2023-04-03T01:08:47;11.85;;;3.20;;
36441;SDS011;64346;50.820;16.274;2023-04-03T01:11:16;7.72;;;2.95;;
36441;SDS011;64346;50.820;16.274;2023-04-03T01:13:43;12.18;;;4.05;;
36441;SDS011;64346;50.820;16.274;2023-04-03T01:16:13;9.30;;;3.30;;
36441;SDS011;64346;50.820;16.274;2023-04-03T01:18:42;8.45;;;3.30;;
36441;SDS011;64346;50.820;16.274;2023-04-03T01:26:59;8.55;;;3.10;;
36441;SDS011;64346;50.820;16.274;2023-04-03T01:29:31;11.65;;;3.35;;
36441;SDS011;64346;50.820;16.274;2023-04-03T01:32:03;10.15;;;3.92;;
36441;SDS011;64346;50.820;16.274;2023-04-03T01:34:31;10.23;;;3.53;;
36441;SDS011;64346;50.820;16.274;2023-04-03T01:36:58;9.05;;;3.47;;
36441;SDS011;64346;50.820;16.274;2023-04-03T01:39:28;9.93;;;3.72;;
36441;SDS011;64346;50.820;16.274;2023-04-03T01:41:55;9.93;;;3.63;;
36441;SDS011;64346;50.820;16.274;2023-04-03T01:44:22;12.07;;;3.80;;
36441;SDS011;64346;50.820;16.274;2023-04-03T01:46:49;10.30;;;3.45;;
36441;SDS011;64346;50.820;16.274;2023-04-03T01:49:17;9.15;;;3.15;;
36441;SDS011;64346;50.820;16.274;2023-04-03T01:51:44;11.18;;;3.55;;
36441;SDS011;64346;50.820;16.274;2023-04-03T01:54:13;8.07;;;3.38;;
36441;SDS011;64346;50.820;16.274;2023-04-03T01:56:40;12.07;;;3.70;;
36441;SDS011;64346;50.820;16.274;2023-04-03T01:59:08;9.95;;;4.45;;
36441;SDS011;64346;50.820;16.274;2023-04-03T02:01:35;8.82;;;3.45;;
36441;SDS011;64346;50.820;16.274;2023-04-03T02:04:05;10.77;;;3.50;;
36441;SDS011;64346;50.820;16.274;2023-04-03T02:06:33;11.18;;;4.00;;
36441;SDS011;64346;50.820;16.274;2023-04-03T02:09:00;11.52;;;3.92;;
36441;SDS011;64346;50.820;16.274;2023-04-03T02:11:27;10.65;;;3.78;;
36441;SDS011;64346;50.820;16.274;2023-04-03T02:13:55;10.98;;;3.42;;
36441;SDS011;64346;50.820;16.274;2023-04-03T02:16:22;10.55;;;3.65;;
36441;SDS011;64346;50.820;16.274;2023-04-03T02:18:49;9.93;;;3.47;;
36441;SDS011;64346;50.820;16.274;2023-04-03T02:21:17;10.93;;;3.75;;
36441;SDS011;64346;50.820;16.274;2023-04-03T02:23:44;10.18;;;3.33;;
36441;SDS011;64346;50.820;16.274;2023-04-03T02:26:12;11.38;;;3.67;;
36441;SDS011;64346;50.820;16.274;2023-04-03T02:28:41;6.85;;;3.40;;
36441;SDS011;64346;50.820;16.274;2023-04-03T02:31:08;12.85;;;4.03;;
36441;SDS011;64346;50.820;16.274;2023-04-03T02:33:37;11.60;;;3.58;;
36441;SDS011;64346;50.820;16.274;2023-04-03T02:36:05;11.27;;;3.92;;
36441;SDS011;64346;50.820;16.274;2023-04-03T02:38:36;12.45;;;3.75;;
36441;SDS011;64346;50.820;16.274;2023-04-03T02:41:04;14.27;;;3.85;;
36441;SDS011;64346;50.820;16.274;2023-04-03T02:43:32;12.32;;;3.70;;
36441;SDS011;64346;50.820;16.274;2023-04-03T02:46:00;11.35;;;3.80;;
36441;SDS011;64346;50.820;16.274;2023-04-03T02:48:28;10.32;;;3.60;;
36441;SDS011;64346;50.820;16.274;2023-04-03T02:50:57;12.75;;;3.70;;
36441;SDS011;64346;50.820;16.274;2023-04-03T02:53:25;10.82;;;3.80;;
36441;SDS011;64346;50.820;16.274;2023-04-03T02:55:54;9.82;;;3.47;;
36441;SDS011;64346;50.820;16.274;2023-04-03T02:58:24;13.30;;;3.40;;
36441;SDS011;64346;50.820;16.274;2023-04-03T03:03:38;13.15;;;4.18;;
36441;SDS011;64346;50.820;16.274;2023-04-03T03:06:10;11.90;;;3.92;;
36441;SDS011;64346;50.820;16.274;2023-04-03T03:08:41;9.32;;;3.55;;
36441;SDS011;64346;50.820;16.274;2023-04-03T03:11:11;13.80;;;4.00;;
36441;SDS011;64346;50.820;16.274;2023-04-03T03:13:38;10.70;;;4.43;;
36441;SDS011;64346;50.820;16.274;2023-04-03T03:16:06;9.95;;;4.78;;
36441;SDS011;64346;50.820;16.274;2023-04-03T03:18:34;11.73;;;4.35;;
36441;SDS011;64346;50.820;16.274;2023-04-03T03:21:02;11.02;;;3.92;;
36441;SDS011;64346;50.820;16.274;2023-04-03T03:23:32;11.43;;;4.13;;
36441;SDS011;64346;50.820;16.274;2023-04-03T03:26:01;19.60;;;4.53;;
36441;SDS011;64346;50.820;16.274;2023-04-03T03:28:30;16.10;;;4.32;;
36441;SDS011;64346;50.820;16.274;2023-04-03T03:30:58;11.50;;;3.75;;
36441;SDS011;64346;50.820;16.274;2023-04-03T03:33:26;11.52;;;4.30;;
36441;SDS011;64346;50.820;16.274;2023-04-03T03:35:53;10.65;;;4.72;;
36441;SDS011;64346;50.820;16.274;2023-04-03T03:38:24;12.90;;;4.50;;
36441;SDS011;64346;50.820;16.274;2023-04-03T03:40:51;9.85;;;4.45;;
36441;SDS011;64346;50.820;16.274;2023-04-03T03:43:21;12.30;;;4.28;;
36441;SDS011;64346;50.820;16.274;2023-04-03T03:45:54;10.15;;;4.75;;
36441;SDS011;64346;50.820;16.274;2023-04-03T03:48:21;16.00;;;5.28;;
36441;SDS011;64346;50.820;16.274;2023-04-03T03:50:49;11.40;;;4.88;;
36441;SDS011;64346;50.820;16.274;2023-04-03T03:53:16;13.15;;;4.88;;
36441;SDS011;64346;50.820;16.274;2023-04-03T03:55:44;12.40;;;4.90;;
36441;SDS011;64346;50.820;16.274;2023-04-03T03:58:11;14.68;;;4.82;;
36441;SDS011;64346;50.820;16.274;2023-04-03T04:00:38;13.27;;;4.93;;
36441;SDS011;64346;50.820;16.274;2023-04-03T04:03:05;12.32;;;5.10;;
36441;SDS011;64346;50.820;16.274;2023-04-03T04:05:33;13.73;;;4.95;;
36441;SDS011;64346;50.820;16.274;2023-04-03T04:08:01;14.68;;;5.47;;
36441;SDS011;64346;50.820;16.274;2023-04-03T04:10:28;12.82;;;5.85;;
36441;SDS011;64346;50.820;16.274;2023-04-03T04:12:55;12.27;;;5.13;;
36441;SDS011;64346;50.820;16.274;2023-04-03T04:15:25;12.48;;;5.15;;
36441;SDS011;64346;50.820;16.274;2023-04-03T04:17:52;12.60;;;4.70;;
36441;SDS011;64346;50.820;16.274;2023-04-03T04:20:22;14.25;;;6.68;;
36441;SDS011;64346;50.820;16.274;2023-04-03T04:22:51;13.55;;;5.03;;
36441;SDS011;64346;50.820;16.274;2023-04-03T04:25:19;13.77;;;5.30;;
36441;SDS011;64346;50.820;16.274;2023-04-03T04:27:48;12.27;;;4.68;;
36441;SDS011;64346;50.820;16.274;2023-04-03T04:30:16;11.73;;;4.75;;
36441;SDS011;64346;50.820;16.274;2023-04-03T04:32:43;12.07;;;4.97;;
36441;SDS011;64346;50.820;16.274;2023-04-03T04:35:13;11.57;;;5.70;;
36441;SDS011;64346;50.820;16.274;2023-04-03T04:37:45;12.65;;;4.88;;
36441;SDS011;64346;50.820;16.274;2023-04-03T04:40:12;12.23;;;4.97;;
36441;SDS011;64346;50.820;16.274;2023-04-03T04:42:39;13.10;;;4.65;;
36441;SDS011;64346;50.820;16.274;2023-04-03T04:45:07;15.25;;;5.20;;
36441;SDS011;64346;50.820;16.274;2023-04-03T04:47:34;13.90;;;5.60;;
36441;SDS011;64346;50.820;16.274;2023-04-03T04:50:01;14.10;;;5.20;;
36441;SDS011;64346;50.820;16.274;2023-04-03T04:52:31;13.70;;;5.53;;
36441;SDS011;64346;50.820;16.274;2023-04-03T04:54:58;13.75;;;5.40;;
36441;SDS011;64346;50.820;16.274;2023-04-03T04:57:26;15.18;;;5.65;;
36441;SDS011;64346;50.820;16.274;2023-04-03T04:59:53;10.98;;;5.35;;
36441;SDS011;64346;50.820;16.274;2023-04-03T05:02:20;11.77;;;5.47;;
36441;SDS011;64346;50.820;16.274;2023-04-03T05:04:48;11.43;;;5.25;;
36441;SDS011;64346;50.820;16.274;2023-04-03T05:07:15;13.60;;;5.80;;
36441;SDS011;64346;50.820;16.274;2023-04-03T05:09:43;11.88;;;5.38;;
36441;SDS011;64346;50.820;16.274;2023-04-03T05:12:10;15.18;;;5.53;;
36441;SDS011;64346;50.820;16.274;2023-04-03T05:14:39;10.50;;;5.28;;
36441;SDS011;64346;50.820;16.274;2023-04-03T05:17:07;14.18;;;6.20;;
36441;SDS011;64346;50.820;16.274;2023-04-03T05:19:34;13.32;;;4.90;;
36441;SDS011;64346;50.820;16.274;2023-04-03T05:22:02;12.07;;;5.68;;
36441;SDS011;64346;50.820;16.274;2023-04-03T05:24:32;13.38;;;5.75;;
36441;SDS011;64346;50.820;16.274;2023-04-03T05:26:59;13.27;;;5.93;;
36441;SDS011;64346;50.820;16.274;2023-04-03T05:29:26;11.60;;;4.57;;
36441;SDS011;64346;50.820;16.274;2023-04-03T05:31:53;17.45;;;5.88;;
36441;SDS011;64346;50.820;16.274;2023-04-03T05:34:21;15.02;;;6.88;;
36441;SDS011;64346;50.820;16.274;2023-04-03T05:36:48;15.05;;;5.50;;
36441;SDS011;64346;50.820;16.274;2023-04-03T05:39:15;16.05;;;5.65;;
36441;SDS011;64346;50.820;16.274;2023-04-03T05:41:42;13.80;;;5.45;;
36441;SDS011;64346;50.820;16.274;2023-04-03T05:44:10;13.20;;;6.60;;
36441;SDS011;64346;50.820;16.274;2023-04-03T05:46:39;14.60;;;5.55;;
36441;SDS011;64346;50.820;16.274;2023-04-03T05:49:09;13.30;;;4.97;;
36441;SDS011;64346;50.820;16.274;2023-04-03T05:51:37;12.05;;;4.65;;
36441;SDS011;64346;50.820;16.274;2023-04-03T05:56:44;13.98;;;4.60;;
36441;SDS011;64346;50.820;16.274;2023-04-03T05:59:14;12.25;;;4.43;;
36441;SDS011;64346;50.820;16.274;2023-04-03T06:01:41;13.95;;;5.70;;
36441;SDS011;64346;50.820;16.274;2023-04-03T06:04:09;13.30;;;4.43;;
36441;SDS011;64346;50.820;16.274;2023-04-03T06:09:20;13.00;;;4.35;;
36441;SDS011;64346;50.820;16.274;2023-04-03T06:11:52;13.00;;;3.90;;
36441;SDS011;64346;50.820;16.274;2023-04-03T06:14:19;10.50;;;4.25;;
36441;SDS011;64346;50.820;16.274;2023-04-03T06:16:47;8.63;;;3.58;;
36441;SDS011;64346;50.820;16.274;2023-04-03T06:19:14;12.85;;;5.20;;
36441;SDS011;64346;50.820;16.274;2023-04-03T06:21:42;13.63;;;4.38;;
36441;SDS011;64346;50.820;16.274;2023-04-03T06:24:12;9.70;;;3.40;;
36441;SDS011;64346;50.820;16.274;2023-04-03T06:26:43;12.35;;;4.53;;
36441;SDS011;64346;50.820;16.274;2023-04-03T06:29:13;10.77;;;3.50;;
36441;SDS011;64346;50.820;16.274;2023-04-03T06:31:40;11.23;;;3.45;;
36441;SDS011;64346;50.820;16.274;2023-04-03T06:34:10;8.82;;;3.35;;
36441;SDS011;64346;50.820;16.274;2023-04-03T06:36:37;18.48;;;6.28;;
36441;SDS011;64346;50.820;16.274;2023-04-03T06:39:05;11.07;;;3.60;;
36441;SDS011;64346;50.820;16.274;2023-04-03T06:41:34;8.85;;;3.55;;
36441;SDS011;64346;50.820;16.274;2023-04-03T06:44:03;10.40;;;3.47;;
36441;SDS011;64346;50.820;16.274;2023-04-03T06:46:30;8.85;;;3.65;;
36441;SDS011;64346;50.820;16.274;2023-04-03T06:48:57;11.15;;;3.72;;
36441;SDS011;64346;50.820;16.274;2023-04-03T06:51:25;9.30;;;3.50;;
36441;SDS011;64346;50.820;16.274;2023-04-03T06:53:57;11.30;;;3.70;;
36441;SDS011;64346;50.820;16.274;2023-04-03T06:56:25;16.20;;;4.03;;
36441;SDS011;64346;50.820;16.274;2023-04-03T06:58:53;8.13;;;3.35;;
36441;SDS011;64346;50.820;16.274;2023-04-03T07:01:21;8.00;;;2.80;;
36441;SDS011;64346;50.820;16.274;2023-04-03T07:03:49;10.68;;;3.15;;
36441;SDS011;64346;50.820;16.274;2023-04-03T07:06:16;9.40;;;3.45;;
36441;SDS011;64346;50.820;16.274;2023-04-03T07:08:44;11.27;;;3.88;;
36441;SDS011;64346;50.820;16.274;2023-04-03T07:11:12;7.93;;;2.67;;
36441;SDS011;64346;50.820;16.274;2023-04-03T07:13:42;9.70;;;2.90;;
36441;SDS011;64346;50.820;16.274;2023-04-03T07:16:09;9.70;;;3.50;;
36441;SDS011;64346;50.820;16.274;2023-04-03T07:18:37;8.90;;;3.00;;
36441;SDS011;64346;50.820;16.274;2023-04-03T07:21:06;10.13;;;3.20;;
36441;SDS011;64346;50.820;16.274;2023-04-03T07:23:37;10.32;;;3.35;;
36441;SDS011;64346;50.820;16.274;2023-04-03T07:26:04;9.40;;;2.83;;
36441;SDS011;64346;50.820;16.274;2023-04-03T07:28:34;14.32;;;3.70;;
36441;SDS011;64346;50.820;16.274;2023-04-03T07:31:03;11.48;;;4.22;;
36441;SDS011;64346;50.820;16.274;2023-04-03T07:33:32;8.05;;;3.03;;
36441;SDS011;64346;50.820;16.274;2023-04-03T07:35:59;8.63;;;3.45;;
36441;SDS011;64346;50.820;16.274;2023-04-03T07:38:27;9.75;;;3.50;;
36441;SDS011;64346;50.820;16.274;2023-04-03T07:40:54;11.75;;;3.90;;
36441;SDS011;64346;50.820;16.274;2023-04-03T07:43:22;12.38;;;3.67;;
36441;SDS011;64346;50.820;16.274;2023-04-03T07:45:52;7.85;;;2.47;;
36441;SDS011;64346;50.820;16.274;2023-04-03T07:48:20;7.53;;;2.60;;
36441;SDS011;64346;50.820;16.274;2023-04-03T07:50:48;16.45;;;7.65;;
36441;SDS011;64346;50.820;16.274;2023-04-03T07:53:16;10.05;;;3.30;;
36441;SDS011;64346;50.820;16.274;2023-04-03T07:55:45;15.20;;;3.85;;
36441;SDS011;64346;50.820;16.274;2023-04-03T07:58:16;7.60;;;2.72;;
36441;SDS011;64346;50.820;16.274;2023-04-03T08:00:44;8.27;;;3.10;;
36441;SDS011;64346;50.820;16.274;2023-04-03T08:03:12;8.00;;;2.65;;
36441;SDS011;64346;50.820;16.274;2023-04-03T08:05:41;9.13;;;2.80;;
36441;SDS011;64346;50.820;16.274;2023-04-03T08:08:13;17.73;;;7.22;;
36441;SDS011;64346;50.820;16.274;2023-04-03T08:10:51;9.43;;;2.90;;
36441;SDS011;64346;50.820;16.274;2023-04-03T08:13:19;9.38;;;2.72;;
36441;SDS011;64346;50.820;16.274;2023-04-03T08:15:47;7.78;;;2.40;;
36441;SDS011;64346;50.820;16.274;2023-04-03T08:18:15;7.03;;;2.33;;
36441;SDS011;64346;50.820;16.274;2023-04-03T08:20:45;5.32;;;2.08;;
36441;SDS011;64346;50.820;16.274;2023-04-03T08:23:12;6.90;;;2.20;;
36441;SDS011;64346;50.820;16.274;2023-04-03T08:25:40;8.65;;;3.03;;
36441;SDS011;64346;50.820;16.274;2023-04-03T08:28:10;6.30;;;2.35;;
36441;SDS011;64346;50.820;16.274;2023-04-03T08:30:39;6.50;;;2.70;;
36441;SDS011;64346;50.820;16.274;2023-04-03T08:33:07;6.05;;;2.33;;
36441;SDS011;64346;50.820;16.274;2023-04-03T08:35:40;5.90;;;2.47;;
36441;SDS011;64346;50.820;16.274;2023-04-03T08:38:09;8.73;;;2.67;;
36441;SDS011;64346;50.820;16.274;2023-04-03T08:40:39;8.02;;;2.20;;
36441;SDS011;64346;50.820;16.274;2023-04-03T08:43:17;7.40;;;2.70;;
36441;SDS011;64346;50.820;16.274;2023-04-03T08:45:57;5.40;;;2.17;;
36441;SDS011;64346;50.820;16.274;2023-04-03T08:48:31;5.60;;;2.28;;
36441;SDS011;64346;50.820;16.274;2023-04-03T08:51:06;7.35;;;2.20;;
36441;SDS011;64346;50.820;16.274;2023-04-03T08:53:46;11.15;;;3.78;;
36441;SDS011;64346;50.820;16.274;2023-04-03T08:56:29;5.75;;;2.22;;
36441;SDS011;64346;50.820;16.274;2023-04-03T08:59:03;6.95;;;2.10;;
36441;SDS011;64346;50.820;16.274;2023-04-03T09:01:36;4.57;;;1.92;;
36441;SDS011;64346;50.820;16.274;2023-04-03T09:04:13;5.63;;;2.15;;
36441;SDS011;64346;50.820;16.274;2023-04-03T09:06:43;6.72;;;2.30;;
36441;SDS011;64346;50.820;16.274;2023-04-03T09:09:27;7.38;;;2.40;;
36441;SDS011;64346;50.820;16.274;2023-04-03T09:22:56;5.72;;;2.17;;
36441;SDS011;64346;50.820;16.274;2023-04-03T09:25:29;8.23;;;2.28;;
36441;SDS011;64346;50.820;16.274;2023-04-03T09:28:00;5.10;;;1.88;;
36441;SDS011;64346;50.820;16.274;2023-04-03T09:30:28;5.43;;;2.63;;
36441;SDS011;64346;50.820;16.274;2023-04-03T09:32:57;5.65;;;2.20;;
36441;SDS011;64346;50.820;16.274;2023-04-03T09:35:30;6.38;;;2.60;;
36441;SDS011;64346;50.820;16.274;2023-04-03T09:40:42;5.20;;;2.10;;
36441;SDS011;64346;50.820;16.274;2023-04-03T09:45:52;4.28;;;1.63;;
36441;SDS011;64346;50.820;16.274;2023-04-03T09:48:20;6.10;;;2.00;;
36441;SDS011;64346;50.820;16.274;2023-04-03T09:58:45;6.43;;;2.20;;
36441;SDS011;64346;50.820;16.274;2023-04-03T10:01:21;5.63;;;2.30;;
36441;SDS011;64346;50.820;16.274;2023-04-03T10:06:38;6.45;;;1.90;;
36441;SDS011;64346;50.820;16.274;2023-04-03T10:11:58;5.60;;;2.13;;
36441;SDS011;64346;50.820;16.274;2023-04-03T10:14:37;8.20;;;2.08;;
36441;SDS011;64346;50.820;16.274;2023-04-03T10:28:04;9.02;;;2.40;;
36441;SDS011;64346;50.820;16.274;2023-04-03T10:38:48;11.68;;;4.85;;
36441;SDS011;64346;50.820;16.274;2023-04-03T10:41:28;5.38;;;2.08;;
36441;SDS011;64346;50.820;16.274;2023-04-03T10:47:13;5.53;;;1.90;;
36441;SDS011;64346;50.820;16.274;2023-04-03T10:57:39;6.47;;;2.08;;
36441;SDS011;64346;50.820;16.274;2023-04-03T11:00:16;6.53;;;2.30;;
36441;SDS011;64346;50.820;16.274;2023-04-03T11:05:31;5.50;;;2.25;;
36441;SDS011;64346;50.820;16.274;2023-04-03T11:08:09;10.48;;;3.88;;
36441;SDS011;64346;50.820;16.274;2023-04-03T11:10:45;5.95;;;2.10;;
36441;SDS011;64346;50.820;16.274;2023-04-03T11:15:54;6.13;;;2.13;;
36441;SDS011;64346;50.820;16.274;2023-04-03T11:18:32;4.00;;;2.10;;
36441;SDS011;64346;50.820;16.274;2023-04-03T11:21:12;8.25;;;2.50;;
36441;SDS011;64346;50.820;16.274;2023-04-03T11:23:46;6.35;;;2.25;;
36441;SDS011;64346;50.820;16.274;2023-04-03T11:26:17;5.47;;;2.10;;
36441;SDS011;64346;50.820;16.274;2023-04-03T11:28:58;9.73;;;2.33;;
36441;SDS011;64346;50.820;16.274;2023-04-03T11:36:54;7.32;;;2.53;;
36441;SDS011;64346;50.820;16.274;2023-04-03T11:39:25;4.82;;;2.30;;
36441;SDS011;64346;50.820;16.274;2023-04-03T11:47:43;7.78;;;2.30;;
36441;SDS011;64346;50.820;16.274;2023-04-03T11:50:49;6.75;;;2.55;;
36441;SDS011;64346;50.820;16.274;2023-04-03T11:53:25;5.55;;;2.40;;
36441;SDS011;64346;50.820;16.274;2023-04-03T12:01:47;5.50;;;2.47;;
36441;SDS011;64346;50.820;16.274;2023-04-03T12:04:15;7.95;;;2.28;;
36441;SDS011;64346;50.820;16.274;2023-04-03T12:14:57;5.43;;;2.40;;
36441;SDS011;64346;50.820;16.274;2023-04-03T12:17:46;8.40;;;2.53;;
36441;SDS011;64346;50.820;16.274;2023-04-03T12:20:59;10.32;;;2.40;;
36441;SDS011;64346;50.820;16.274;2023-04-03T12:23:23;5.13;;;2.30;;
36441;SDS011;64346;50.820;16.274;2023-04-03T12:25:50;7.35;;;2.75;;
36441;SDS011;64346;50.820;16.274;2023-04-03T12:28:17;5.70;;;2.30;;
36441;SDS011;64346;50.820;16.274;2023-04-03T12:30:45;5.97;;;2.50;;
36441;SDS011;64346;50.820;16.274;2023-04-03T12:36:05;5.85;;;2.17;;
36441;SDS011;64346;50.820;16.274;2023-04-03T12:39:17;5.90;;;2.47;;
36441;SDS011;64346;50.820;16.274;2023-04-03T12:47:08;7.72;;;2.40;;
36441;SDS011;64346;50.820;16.274;2023-04-03T12:49:49;5.65;;;2.40;;
36441;SDS011;64346;50.820;16.274;2023-04-03T12:54:47;6.05;;;2.40;;
36441;SDS011;64346;50.820;16.274;2023-04-03T12:57:19;6.35;;;2.20;;
36441;SDS011;64346;50.820;16.274;2023-04-03T12:59:55;6.45;;;2.15;;
36441;SDS011;64346;50.820;16.274;2023-04-03T13:02:26;7.47;;;2.50;;
36441;SDS011;64346;50.820;16.274;2023-04-03T13:05:04;10.82;;;4.75;;
36441;SDS011;64346;50.820;16.274;2023-04-03T13:07:36;8.07;;;2.90;;
36441;SDS011;64346;50.820;16.274;2023-04-03T13:12:45;5.07;;;2.35;;
36441;SDS011;64346;50.820;16.274;2023-04-03T13:15:23;7.95;;;2.65;;
36441;SDS011;64346;50.820;16.274;2023-04-03T13:17:54;7.45;;;2.97;;
36441;SDS011;64346;50.820;16.274;2023-04-03T13:20:31;8.63;;;2.50;;
36441;SDS011;64346;50.820;16.274;2023-04-03T13:23:05;6.10;;;2.15;;
36441;SDS011;64346;50.820;16.274;2023-04-03T13:25:35;7.30;;;2.80;;
36441;SDS011;64346;50.820;16.274;2023-04-03T13:28:09;5.72;;;2.20;;
36441;SDS011;64346;50.820;16.274;2023-04-03T13:30:40;8.75;;;2.45;;
36441;SDS011;64346;50.820;16.274;2023-04-03T13:33:33;5.93;;;2.05;;
36441;SDS011;64346;50.820;16.274;2023-04-03T13:36:03;7.72;;;2.20;;
36441;SDS011;64346;50.820;16.274;2023-04-03T13:38:43;8.07;;;2.60;;
36441;SDS011;64346;50.820;16.274;2023-04-03T13:44:13;8.85;;;2.40;;
36441;SDS011;64346;50.820;16.274;2023-04-03T13:46:44;8.25;;;2.33;;
36441;SDS011;64346;50.820;16.274;2023-04-03T13:54:47;9.80;;;2.70;;
36441;SDS011;64346;50.820;16.274;2023-04-03T13:57:21;8.93;;;3.03;;
36441;SDS011;64346;50.820;16.274;2023-04-03T13:59:52;5.07;;;2.13;;
36441;SDS011;64346;50.820;16.274;2023-04-03T14:02:30;8.10;;;2.85;;
36441;SDS011;64346;50.820;16.274;2023-04-03T14:05:01;8.43;;;3.15;;
36441;SDS011;64346;50.820;16.274;2023-04-03T14:07:32;9.68;;;3.15;;
36441;SDS011;64346;50.820;16.274;2023-04-03T14:10:02;7.07;;;2.63;;
36441;SDS011;64346;50.820;16.274;2023-04-03T14:12:35;11.57;;;3.17;;
36441;SDS011;64346;50.820;16.274;2023-04-03T14:15:07;8.38;;;2.97;;
36441;SDS011;64346;50.820;16.274;2023-04-03T14:17:59;4.55;;;2.47;;
36441;SDS011;64346;50.820;16.274;2023-04-03T14:20:30;10.30;;;2.78;;
36441;SDS011;64346;50.820;16.274;2023-04-03T14:22:59;9.18;;;2.97;;
36441;SDS011;64346;50.820;16.274;2023-04-03T14:25:27;8.00;;;2.70;;
36441;SDS011;64346;50.820;16.274;2023-04-03T14:27:56;7.10;;;2.75;;
36441;SDS011;64346;50.820;16.274;2023-04-03T14:30:26;7.95;;;3.08;;
36441;SDS011;64346;50.820;16.274;2023-04-03T14:32:55;5.63;;;2.42;;
36441;SDS011;64346;50.820;16.274;2023-04-03T14:35:23;7.53;;;2.58;;
36441;SDS011;64346;50.820;16.274;2023-04-03T14:37:51;9.13;;;3.10;;
36441;SDS011;64346;50.820;16.274;2023-04-03T14:40:23;7.03;;;2.83;;
36441;SDS011;64346;50.820;16.274;2023-04-03T14:42:53;9.13;;;2.50;;
36441;SDS011;64346;50.820;16.274;2023-04-03T14:45:21;8.15;;;3.08;;
36441;SDS011;64346;50.820;16.274;2023-04-03T14:47:53;9.57;;;2.55;;
36441;SDS011;64346;50.820;16.274;2023-04-03T14:50:23;8.35;;;2.70;;
36441;SDS011;64346;50.820;16.274;2023-04-03T14:52:53;7.10;;;2.85;;
36441;SDS011;64346;50.820;16.274;2023-04-03T14:55:24;9.60;;;2.50;;
36441;SDS011;64346;50.820;16.274;2023-04-03T14:57:53;7.78;;;2.95;;
36441;SDS011;64346;50.820;16.274;2023-04-03T15:00:21;7.90;;;2.90;;
36441;SDS011;64346;50.820;16.274;2023-04-03T15:02:49;8.52;;;3.20;;
36441;SDS011;64346;50.820;16.274;2023-04-03T15:05:19;8.43;;;3.10;;
36441;SDS011;64346;50.820;16.274;2023-04-03T15:07:50;7.65;;;2.67;;
36441;SDS011;64346;50.820;16.274;2023-04-03T15:10:21;7.78;;;2.60;;
36441;SDS011;64346;50.820;16.274;2023-04-03T15:12:51;9.13;;;3.20;;
36441;SDS011;64346;50.820;16.274;2023-04-03T15:15:19;10.63;;;4.55;;
36441;SDS011;64346;50.820;16.274;2023-04-03T15:17:50;6.80;;;2.67;;
36441;SDS011;64346;50.820;16.274;2023-04-03T15:20:22;7.05;;;2.72;;
36441;SDS011;64346;50.820;16.274;2023-04-03T15:22:52;8.27;;;3.33;;
36441;SDS011;64346;50.820;16.274;2023-04-03T15:25:19;8.13;;;3.22;;
36441;SDS011;64346;50.820;16.274;2023-04-03T15:27:46;6.82;;;3.13;;
36441;SDS011;64346;50.820;16.274;2023-04-03T15:30:17;9.18;;;3.38;;
36441;SDS011;64346;50.820;16.274;2023-04-03T15:32:45;7.25;;;2.92;;
36441;SDS011;64346;50.820;16.274;2023-04-03T15:35:15;7.05;;;2.80;;
36441;SDS011;64346;50.820;16.274;2023-04-03T15:37:42;7.50;;;3.00;;
36441;SDS011;64346;50.820;16.274;2023-04-03T15:40:10;8.80;;;3.00;;
36441;SDS011;64346;50.820;16.274;2023-04-03T15:42:37;12.52;;;6.35;;
36441;SDS011;64346;50.820;16.274;2023-04-03T15:45:06;7.32;;;2.72;;
36441;SDS011;64346;50.820;16.274;2023-04-03T15:47:33;8.02;;;3.13;;
36441;SDS011;64346;50.820;16.274;2023-04-03T15:50:01;7.75;;;2.67;;
36441;SDS011;64346;50.820;16.274;2023-04-03T15:52:29;8.27;;;2.95;;
36441;SDS011;64346;50.820;16.274;2023-04-03T15:54:57;8.30;;;4.18;;
36441;SDS011;64346;50.820;16.274;2023-04-03T15:57:24;9.00;;;3.40;;
36441;SDS011;64346;50.820;16.274;2023-04-03T15:59:52;10.43;;;3.00;;
36441;SDS011;64346;50.820;16.274;2023-04-03T16:02:19;8.43;;;3.10;;
36441;SDS011;64346;50.820;16.274;2023-04-03T16:04:50;8.80;;;3.20;;
36441;SDS011;64346;50.820;16.274;2023-04-03T16:07:17;9.05;;;3.38;;
36441;SDS011;64346;50.820;16.274;2023-04-03T16:09:47;9.25;;;3.38;;
36441;SDS011;64346;50.820;16.274;2023-04-03T16:12:15;6.38;;;2.80;;
36441;SDS011;64346;50.820;16.274;2023-04-03T16:14:44;8.88;;;3.30;;
36441;SDS011;64346;50.820;16.274;2023-04-03T16:17:12;8.93;;;3.00;;
36441;SDS011;64346;50.820;16.274;2023-04-03T16:19:41;7.10;;;3.15;;
36441;SDS011;64346;50.820;16.274;2023-04-03T16:22:11;8.60;;;3.03;;
36441;SDS011;64346;50.820;16.274;2023-04-03T16:24:38;13.95;;;5.63;;
36441;SDS011;64346;50.820;16.274;2023-04-03T16:27:05;10.70;;;3.85;;
36441;SDS011;64346;50.820;16.274;2023-04-03T16:29:33;8.23;;;3.15;;
36441;SDS011;64346;50.820;16.274;2023-04-03T16:32:00;6.53;;;3.00;;
36441;SDS011;64346;50.820;16.274;2023-04-03T16:34:31;8.77;;;3.58;;
36441;SDS011;64346;50.820;16.274;2023-04-03T16:37:01;7.97;;;3.30;;
36441;SDS011;64346;50.820;16.274;2023-04-03T16:39:30;8.30;;;3.20;;
36441;SDS011;64346;50.820;16.274;2023-04-03T16:41:58;17.02;;;6.72;;
36441;SDS011;64346;50.820;16.274;2023-04-03T16:44:27;12.48;;;4.88;;
36441;SDS011;64346;50.820;16.274;2023-04-03T16:46:54;9.77;;;3.65;;
36441;SDS011;64346;50.820;16.274;2023-04-03T16:49:24;8.88;;;3.65;;
36441;SDS011;64346;50.820;16.274;2023-04-03T16:51:54;10.13;;;3.70;;